sensor_id;sensor_type;location;lat;lon;timestamp;pressure;altitude;pressure_sealevel;temperature;humidity
77381;BME280;66439;50.106;10.996;2024-01-16T00:01:57;97731.48;;;1.87;65.65
77381;BME280;66439;50.106;10.996;2024-01-16T00:04:00;97736.68;;;1.86;65.63
77381;BME280;66439;50.106;10.996;2024-01-16T00:06:03;97733.57;;;1.86;65.70
77381;BME280;66439;50.106;10.996;2024-01-16T00:08:06;97735.44;;;1.90;66.06
77381;BME280;66439;50.106;10.996;2024-01-16T00:10:09;97730.98;;;1.92;65.86
77381;BME280;66439;50.106;10.996;2024-01-16T00:12:12;97733.23;;;1.93;65.75
77381;BME280;66439;50.106;10.996;2024-01-16T00:14:14;97731.94;;;1.91;65.58
77381;BME280;66439;50.106;10.996;2024-01-16T00:16:17;97732.30;;;1.88;65.46
77381;BME280;66439;50.106;10.996;2024-01-16T00:18:19;97730.23;;;1.86;65.52
77381;BME280;66439;50.106;10.996;2024-01-16T00:20:22;97740.02;;;1.81;65.39
77381;BME280;66439;50.106;10.996;2024-01-16T00:22:27;97743.64;;;1.76;65.45
77381;BME280;66439;50.106;10.996;2024-01-16T00:24:30;97746.33;;;1.75;65.72
77381;BME280;66439;50.106;10.996;2024-01-16T00:26:34;97748.22;;;1.76;65.61
77381;BME280;66439;50.106;10.996;2024-01-16T00:28:37;97746.88;;;1.75;65.77
77381;BME280;66439;50.106;10.996;2024-01-16T00:30:39;97742.98;;;1.77;65.59
77381;BME280;66439;50.106;10.996;2024-01-16T00:32:42;97745.44;;;1.79;65.68
77381;BME280;66439;50.106;10.996;2024-01-16T00:34:44;97745.21;;;1.80;65.80
77381;BME280;66439;50.106;10.996;2024-01-16T00:36:47;97746.65;;;1.79;65.66
77381;BME280;66439;50.106;10.996;2024-01-16T00:38:49;97746.27;;;1.78;65.59
77381;BME280;66439;50.106;10.996;2024-01-16T00:40:52;97745.06;;;1.78;65.46
77381;BME280;66439;50.106;10.996;2024-01-16T00:42:55;97756.05;;;1.81;65.70
77381;BME280;66439;50.106;10.996;2024-01-16T00:44:58;97750.59;;;1.85;65.64
77381;BME280;66439;50.106;10.996;2024-01-16T00:47:00;97755.95;;;1.87;65.70
77381;BME280;66439;50.106;10.996;2024-01-16T00:49:04;97755.45;;;1.90;65.50
77381;BME280;66439;50.106;10.996;2024-01-16T00:51:07;97753.77;;;1.91;65.79
77381;BME280;66439;50.106;10.996;2024-01-16T00:53:09;97760.54;;;1.92;65.50
77381;BME280;66439;50.106;10.996;2024-01-16T00:55:12;97756.67;;;1.92;65.46
77381;BME280;66439;50.106;10.996;2024-01-16T00:57:16;97768.50;;;1.93;65.25
77381;BME280;66439;50.106;10.996;2024-01-16T00:59:21;97773.36;;;1.93;65.33
77381;BME280;66439;50.106;10.996;2024-01-16T01:01:24;97771.98;;;1.97;65.35
77381;BME280;66439;50.106;10.996;2024-01-16T01:03:27;97772.45;;;1.95;65.16
77381;BME280;66439;50.106;10.996;2024-01-16T01:05:29;97768.72;;;1.98;65.23
77381;BME280;66439;50.106;10.996;2024-01-16T01:07:32;97772.63;;;1.97;65.06
77381;BME280;66439;50.106;10.996;2024-01-16T01:09:35;97773.23;;;1.94;65.02
77381;BME280;66439;50.106;10.996;2024-01-16T01:11:38;97776.66;;;1.90;64.81
77381;BME280;66439;50.106;10.996;2024-01-16T01:13:41;97779.88;;;1.89;64.90
77381;BME280;66439;50.106;10.996;2024-01-16T01:15:43;97784.84;;;1.88;64.96
77381;BME280;66439;50.106;10.996;2024-01-16T01:17:48;97789.64;;;1.86;64.97
77381;BME280;66439;50.106;10.996;2024-01-16T01:19:51;97789.50;;;1.85;65.07
77381;BME280;66439;50.106;10.996;2024-01-16T01:21:54;97792.27;;;1.84;65.04
77381;BME280;66439;50.106;10.996;2024-01-16T01:23:56;97789.06;;;1.81;64.94
77381;BME280;66439;50.106;10.996;2024-01-16T01:26:00;97790.66;;;1.79;64.96
77381;BME280;66439;50.106;10.996;2024-01-16T01:28:02;97796.76;;;1.79;65.17
77381;BME280;66439;50.106;10.996;2024-01-16T01:30:08;97802.39;;;1.79;65.20
77381;BME280;66439;50.106;10.996;2024-01-16T01:32:14;97801.54;;;1.77;65.04
77381;BME280;66439;50.106;10.996;2024-01-16T01:34:16;97799.53;;;1.79;65.46
77381;BME280;66439;50.106;10.996;2024-01-16T01:36:19;97795.92;;;1.86;65.40
77381;BME280;66439;50.106;10.996;2024-01-16T01:38:22;97801.94;;;1.89;65.28
77381;BME280;66439;50.106;10.996;2024-01-16T01:40:25;97805.69;;;1.93;65.40
77381;BME280;66439;50.106;10.996;2024-01-16T01:42:27;97811.20;;;1.94;65.54
77381;BME280;66439;50.106;10.996;2024-01-16T01:44:30;97812.89;;;1.98;65.70
77381;BME280;66439;50.106;10.996;2024-01-16T01:46:34;97815.55;;;2.00;65.29
77381;BME280;66439;50.106;10.996;2024-01-16T01:48:38;97814.73;;;1.99;65.28
77381;BME280;66439;50.106;10.996;2024-01-16T01:50:42;97817.39;;;1.99;65.16
77381;BME280;66439;50.106;10.996;2024-01-16T01:52:45;97813.98;;;2.00;65.25
77381;BME280;66439;50.106;10.996;2024-01-16T01:54:47;97818.92;;;2.03;65.30
77381;BME280;66439;50.106;10.996;2024-01-16T01:56:51;97825.02;;;2.06;65.12
77381;BME280;66439;50.106;10.996;2024-01-16T01:58:57;97824.34;;;2.04;64.81
77381;BME280;66439;50.106;10.996;2024-01-16T02:01:02;97832.00;;;2.01;64.94
77381;BME280;66439;50.106;10.996;2024-01-16T02:03:05;97830.44;;;2.01;64.88
77381;BME280;66439;50.106;10.996;2024-01-16T02:05:07;97832.26;;;2.02;65.01
77381;BME280;66439;50.106;10.996;2024-01-16T02:07:10;97836.64;;;2.02;64.76
77381;BME280;66439;50.106;10.996;2024-01-16T02:09:13;97836.78;;;1.99;64.75
77381;BME280;66439;50.106;10.996;2024-01-16T02:11:16;97834.48;;;1.97;64.64
77381;BME280;66439;50.106;10.996;2024-01-16T02:13:19;97833.26;;;1.91;64.61
77381;BME280;66439;50.106;10.996;2024-01-16T02:15:25;97839.14;;;1.87;64.53
77381;BME280;66439;50.106;10.996;2024-01-16T02:17:28;97839.21;;;1.88;64.87
77381;BME280;66439;50.106;10.996;2024-01-16T02:19:30;97848.11;;;1.90;64.85
77381;BME280;66439;50.106;10.996;2024-01-16T02:21:41;97846.23;;;1.87;64.71
77381;BME280;66439;50.106;10.996;2024-01-16T02:23:49;97854.00;;;1.87;64.71
77381;BME280;66439;50.106;10.996;2024-01-16T02:25:53;97855.52;;;1.85;64.75
77381;BME280;66439;50.106;10.996;2024-01-16T02:27:56;97853.90;;;1.84;64.66
77381;BME280;66439;50.106;10.996;2024-01-16T02:30:00;97862.95;;;1.84;64.79
77381;BME280;66439;50.106;10.996;2024-01-16T02:32:02;97860.13;;;1.90;65.13
77381;BME280;66439;50.106;10.996;2024-01-16T02:34:05;97855.27;;;1.99;65.26
77381;BME280;66439;50.106;10.996;2024-01-16T02:36:08;97855.48;;;2.02;65.07
77381;BME280;66439;50.106;10.996;2024-01-16T02:38:11;97856.23;;;2.03;64.98
77381;BME280;66439;50.106;10.996;2024-01-16T02:40:13;97852.83;;;2.06;64.92
77381;BME280;66439;50.106;10.996;2024-01-16T02:42:16;97858.79;;;2.09;65.16
77381;BME280;66439;50.106;10.996;2024-01-16T02:44:19;97857.96;;;2.12;65.10
77381;BME280;66439;50.106;10.996;2024-01-16T02:46:21;97860.11;;;2.14;64.84
77381;BME280;66439;50.106;10.996;2024-01-16T02:48:24;97861.55;;;2.13;64.63
77381;BME280;66439;50.106;10.996;2024-01-16T02:50:27;97863.31;;;2.15;64.55
77381;BME280;66439;50.106;10.996;2024-01-16T02:52:30;97859.67;;;2.13;64.22
77381;BME280;66439;50.106;10.996;2024-01-16T02:54:33;97858.86;;;2.10;64.34
77381;BME280;66439;50.106;10.996;2024-01-16T02:56:36;97861.38;;;2.06;64.08
77381;BME280;66439;50.106;10.996;2024-01-16T02:58:38;97865.81;;;2.04;64.14
77381;BME280;66439;50.106;10.996;2024-01-16T03:00:41;97865.00;;;2.01;64.02
77381;BME280;66439;50.106;10.996;2024-01-16T03:02:44;97873.20;;;2.00;64.01
77381;BME280;66439;50.106;10.996;2024-01-16T03:04:46;97881.79;;;1.99;64.20
77381;BME280;66439;50.106;10.996;2024-01-16T03:06:49;97882.35;;;1.95;63.88
77381;BME280;66439;50.106;10.996;2024-01-16T03:08:52;97879.17;;;1.95;64.26
77381;BME280;66439;50.106;10.996;2024-01-16T03:10:54;97877.75;;;1.98;64.21
77381;BME280;66439;50.106;10.996;2024-01-16T03:12:57;97877.86;;;2.00;64.31
77381;BME280;66439;50.106;10.996;2024-01-16T03:15:00;97876.44;;;2.02;64.27
77381;BME280;66439;50.106;10.996;2024-01-16T03:17:03;97875.50;;;1.99;63.93
77381;BME280;66439;50.106;10.996;2024-01-16T03:19:06;97874.61;;;1.94;63.76
77381;BME280;66439;50.106;10.996;2024-01-16T03:21:07;97870.44;;;1.88;63.83
77381;BME280;66439;50.106;10.996;2024-01-16T03:23:10;97872.55;;;1.84;63.68
77381;BME280;66439;50.106;10.996;2024-01-16T03:25:13;97875.52;;;1.81;63.63
77381;BME280;66439;50.106;10.996;2024-01-16T03:27:16;97876.56;;;1.79;63.93
77381;BME280;66439;50.106;10.996;2024-01-16T03:29:18;97877.64;;;1.79;64.04
77381;BME280;66439;50.106;10.996;2024-01-16T03:31:21;97882.00;;;1.81;64.03
77381;BME280;66439;50.106;10.996;2024-01-16T03:33:24;97881.82;;;1.79;63.99
77381;BME280;66439;50.106;10.996;2024-01-16T03:35:27;97888.08;;;1.74;63.74
77381;BME280;66439;50.106;10.996;2024-01-16T03:37:30;97892.91;;;1.67;63.71
77381;BME280;66439;50.106;10.996;2024-01-16T03:39:32;97895.23;;;1.65;63.75
77381;BME280;66439;50.106;10.996;2024-01-16T03:41:35;97893.18;;;1.66;64.07
77381;BME280;66439;50.106;10.996;2024-01-16T03:43:39;97897.45;;;1.67;64.10
77381;BME280;66439;50.106;10.996;2024-01-16T03:45:42;97899.27;;;1.68;64.16
77381;BME280;66439;50.106;10.996;2024-01-16T03:47:45;97897.69;;;1.72;64.19
77381;BME280;66439;50.106;10.996;2024-01-16T03:49:47;97895.17;;;1.73;64.01
77381;BME280;66439;50.106;10.996;2024-01-16T03:51:51;97898.75;;;1.76;64.18
77381;BME280;66439;50.106;10.996;2024-01-16T03:53:53;97901.23;;;1.77;64.27
77381;BME280;66439;50.106;10.996;2024-01-16T03:55:56;97895.92;;;1.81;64.61
77381;BME280;66439;50.106;10.996;2024-01-16T03:57:59;97906.30;;;1.86;64.36
77381;BME280;66439;50.106;10.996;2024-01-16T04:00:01;97907.31;;;1.86;64.25
77381;BME280;66439;50.106;10.996;2024-01-16T04:02:05;97904.14;;;1.87;64.15
77381;BME280;66439;50.106;10.996;2024-01-16T04:04:10;97906.44;;;1.88;64.04
77381;BME280;66439;50.106;10.996;2024-01-16T04:06:19;97914.39;;;1.91;64.41
77381;BME280;66439;50.106;10.996;2024-01-16T04:08:22;97919.88;;;1.95;64.29
77381;BME280;66439;50.106;10.996;2024-01-16T04:10:23;97915.46;;;1.98;64.32
77381;BME280;66439;50.106;10.996;2024-01-16T04:12:26;97921.08;;;2.00;64.15
77381;BME280;66439;50.106;10.996;2024-01-16T04:14:28;97921.11;;;1.97;63.89
77381;BME280;66439;50.106;10.996;2024-01-16T04:16:31;97923.48;;;1.96;63.86
77381;BME280;66439;50.106;10.996;2024-01-16T04:18:36;97920.99;;;1.95;63.88
77381;BME280;66439;50.106;10.996;2024-01-16T04:20:42;97921.71;;;1.94;63.85
77381;BME280;66439;50.106;10.996;2024-01-16T04:22:45;97921.67;;;1.93;63.68
77381;BME280;66439;50.106;10.996;2024-01-16T04:24:48;97918.67;;;1.91;63.76
77381;BME280;66439;50.106;10.996;2024-01-16T04:26:50;97920.63;;;1.93;63.69
77381;BME280;66439;50.106;10.996;2024-01-16T04:28:53;97925.28;;;1.92;63.57
77381;BME280;66439;50.106;10.996;2024-01-16T04:30:56;97923.29;;;1.86;63.28
77381;BME280;66439;50.106;10.996;2024-01-16T04:32:59;97925.49;;;1.84;63.71
77381;BME280;66439;50.106;10.996;2024-01-16T04:35:02;97923.24;;;1.86;63.90
77381;BME280;66439;50.106;10.996;2024-01-16T04:37:05;97922.02;;;1.86;63.78
77381;BME280;66439;50.106;10.996;2024-01-16T04:39:07;97926.41;;;1.84;63.65
77381;BME280;66439;50.106;10.996;2024-01-16T04:41:11;97924.57;;;1.83;63.94
77381;BME280;66439;50.106;10.996;2024-01-16T04:43:14;97928.63;;;1.86;64.23
77381;BME280;66439;50.106;10.996;2024-01-16T04:45:17;97928.21;;;1.87;64.11
77381;BME280;66439;50.106;10.996;2024-01-16T04:47:19;97928.69;;;1.89;64.16
77381;BME280;66439;50.106;10.996;2024-01-16T04:49:22;97928.63;;;1.92;64.27
77381;BME280;66439;50.106;10.996;2024-01-16T04:51:25;97928.30;;;1.95;63.99
77381;BME280;66439;50.106;10.996;2024-01-16T04:53:27;97929.59;;;1.96;64.04
77381;BME280;66439;50.106;10.996;2024-01-16T04:55:30;97927.16;;;2.00;64.06
77381;BME280;66439;50.106;10.996;2024-01-16T04:57:33;97925.94;;;2.02;64.33
77381;BME280;66439;50.106;10.996;2024-01-16T04:59:36;97919.30;;;2.00;63.94
77381;BME280;66439;50.106;10.996;2024-01-16T05:01:38;97922.75;;;2.00;64.05
77381;BME280;66439;50.106;10.996;2024-01-16T05:03:41;97922.93;;;2.00;63.85
77381;BME280;66439;50.106;10.996;2024-01-16T05:05:44;97921.20;;;2.00;63.74
77381;BME280;66439;50.106;10.996;2024-01-16T05:07:49;97921.60;;;1.98;63.49
77381;BME280;66439;50.106;10.996;2024-01-16T05:09:53;97921.86;;;1.93;63.68
77381;BME280;66439;50.106;10.996;2024-01-16T05:11:59;97925.10;;;1.90;63.44
77381;BME280;66439;50.106;10.996;2024-01-16T05:14:04;97924.70;;;1.87;63.45
77381;BME280;66439;50.106;10.996;2024-01-16T05:16:08;97927.86;;;1.85;63.66
77381;BME280;66439;50.106;10.996;2024-01-16T05:18:14;97925.90;;;1.86;63.76
77381;BME280;66439;50.106;10.996;2024-01-16T05:20:19;97927.23;;;1.84;63.45
77381;BME280;66439;50.106;10.996;2024-01-16T05:22:24;97918.98;;;1.83;63.61
77381;BME280;66439;50.106;10.996;2024-01-16T05:24:31;97919.11;;;1.82;63.52
77381;BME280;66439;50.106;10.996;2024-01-16T05:26:33;97921.00;;;1.80;63.45
77381;BME280;66439;50.106;10.996;2024-01-16T05:28:38;97926.83;;;1.80;63.53
77381;BME280;66439;50.106;10.996;2024-01-16T05:30:42;97930.55;;;1.77;63.34
77381;BME280;66439;50.106;10.996;2024-01-16T05:32:45;97937.73;;;1.77;63.50
77381;BME280;66439;50.106;10.996;2024-01-16T05:34:49;97940.14;;;1.76;63.44
77381;BME280;66439;50.106;10.996;2024-01-16T05:36:51;97938.97;;;1.77;63.68
77381;BME280;66439;50.106;10.996;2024-01-16T05:38:56;97937.70;;;1.77;63.58
77381;BME280;66439;50.106;10.996;2024-01-16T05:40:59;97934.66;;;1.78;63.68
77381;BME280;66439;50.106;10.996;2024-01-16T05:43:05;97937.80;;;1.78;63.62
77381;BME280;66439;50.106;10.996;2024-01-16T05:45:08;97940.83;;;1.78;63.73
77381;BME280;66439;50.106;10.996;2024-01-16T05:47:12;97944.25;;;1.78;63.74
77381;BME280;66439;50.106;10.996;2024-01-16T05:49:15;97946.63;;;1.77;63.53
77381;BME280;66439;50.106;10.996;2024-01-16T05:51:20;97945.45;;;1.77;63.76
77381;BME280;66439;50.106;10.996;2024-01-16T05:53:25;97947.78;;;1.80;63.88
77381;BME280;66439;50.106;10.996;2024-01-16T05:55:28;97950.21;;;1.82;63.95
77381;BME280;66439;50.106;10.996;2024-01-16T05:57:34;97946.40;;;1.81;63.93
77381;BME280;66439;50.106;10.996;2024-01-16T05:59:37;97947.46;;;1.83;63.87
77381;BME280;66439;50.106;10.996;2024-01-16T06:01:40;97949.33;;;1.82;63.59
77381;BME280;66439;50.106;10.996;2024-01-16T06:03:44;97953.63;;;1.77;63.44
77381;BME280;66439;50.106;10.996;2024-01-16T06:05:52;97949.89;;;1.78;63.91
77381;BME280;66439;50.106;10.996;2024-01-16T06:07:55;97953.52;;;1.78;63.80
77381;BME280;66439;50.106;10.996;2024-01-16T06:09:59;97955.42;;;1.75;63.56
77381;BME280;66439;50.106;10.996;2024-01-16T06:12:07;97951.33;;;1.72;63.61
77381;BME280;66439;50.106;10.996;2024-01-16T06:14:10;97952.95;;;1.69;63.56
77381;BME280;66439;50.106;10.996;2024-01-16T06:16:16;97955.71;;;1.68;63.62
77381;BME280;66439;50.106;10.996;2024-01-16T06:18:23;97958.20;;;1.69;63.62
77381;BME280;66439;50.106;10.996;2024-01-16T06:20:28;97952.42;;;1.68;63.65
77381;BME280;66439;50.106;10.996;2024-01-16T06:22:34;97951.51;;;1.68;63.69
77381;BME280;66439;50.106;10.996;2024-01-16T06:24:39;97949.21;;;1.70;63.61
77381;BME280;66439;50.106;10.996;2024-01-16T06:26:44;97947.31;;;1.74;63.62
77381;BME280;66439;50.106;10.996;2024-01-16T06:28:47;97946.34;;;1.77;63.46
77381;BME280;66439;50.106;10.996;2024-01-16T06:30:52;97947.16;;;1.77;63.58
77381;BME280;66439;50.106;10.996;2024-01-16T06:32:57;97952.40;;;1.79;63.62
77381;BME280;66439;50.106;10.996;2024-01-16T06:35:00;97949.88;;;1.78;63.44
77381;BME280;66439;50.106;10.996;2024-01-16T06:37:03;97946.60;;;1.79;63.36
77381;BME280;66439;50.106;10.996;2024-01-16T06:39:06;97948.21;;;1.81;63.39
77381;BME280;66439;50.106;10.996;2024-01-16T06:41:09;97946.36;;;1.82;63.22
77381;BME280;66439;50.106;10.996;2024-01-16T06:43:13;97946.00;;;1.82;63.09
77381;BME280;66439;50.106;10.996;2024-01-16T06:45:21;97945.50;;;1.82;63.07
77381;BME280;66439;50.106;10.996;2024-01-16T06:47:24;97937.44;;;1.82;63.07
77381;BME280;66439;50.106;10.996;2024-01-16T06:49:27;97940.41;;;1.82;63.11
77381;BME280;66439;50.106;10.996;2024-01-16T06:51:31;97945.63;;;1.80;63.19
77381;BME280;66439;50.106;10.996;2024-01-16T06:53:34;97945.56;;;1.81;63.35
77381;BME280;66439;50.106;10.996;2024-01-16T06:55:39;97949.13;;;1.80;63.37
77381;BME280;66439;50.106;10.996;2024-01-16T06:57:44;97952.06;;;1.79;63.35
77381;BME280;66439;50.106;10.996;2024-01-16T06:59:49;97961.11;;;1.77;63.34
77381;BME280;66439;50.106;10.996;2024-01-16T07:01:55;97963.25;;;1.75;63.33
77381;BME280;66439;50.106;10.996;2024-01-16T07:03:58;97967.17;;;1.72;63.16
77381;BME280;66439;50.106;10.996;2024-01-16T07:06:03;97967.16;;;1.70;63.61
77381;BME280;66439;50.106;10.996;2024-01-16T07:08:07;97968.23;;;1.72;63.63
77381;BME280;66439;50.106;10.996;2024-01-16T07:10:14;97967.27;;;1.69;63.60
77381;BME280;66439;50.106;10.996;2024-01-16T07:12:22;97969.16;;;1.68;63.77
77381;BME280;66439;50.106;10.996;2024-01-16T07:14:25;97971.92;;;1.70;63.96
77381;BME280;66439;50.106;10.996;2024-01-16T07:16:31;97969.86;;;1.72;64.12
77381;BME280;66439;50.106;10.996;2024-01-16T07:18:32;97971.88;;;1.74;64.19
77381;BME280;66439;50.106;10.996;2024-01-16T07:20:36;97976.29;;;1.78;64.08
77381;BME280;66439;50.106;10.996;2024-01-16T07:22:40;97978.54;;;1.81;64.00
77381;BME280;66439;50.106;10.996;2024-01-16T07:24:44;97985.86;;;1.85;63.97
77381;BME280;66439;50.106;10.996;2024-01-16T07:26:48;97983.91;;;1.89;64.13
77381;BME280;66439;50.106;10.996;2024-01-16T07:28:53;97988.54;;;1.96;64.28
77381;BME280;66439;50.106;10.996;2024-01-16T07:30:56;97986.27;;;2.01;64.11
77381;BME280;66439;50.106;10.996;2024-01-16T07:33:02;97988.23;;;2.08;64.11
77381;BME280;66439;50.106;10.996;2024-01-16T07:35:05;97985.00;;;2.12;63.96
77381;BME280;66439;50.106;10.996;2024-01-16T07:37:14;97980.51;;;2.19;64.33
77381;BME280;66439;50.106;10.996;2024-01-16T07:39:20;97982.89;;;2.25;64.34
77381;BME280;66439;50.106;10.996;2024-01-16T07:41:25;97987.70;;;2.28;63.76
77381;BME280;66439;50.106;10.996;2024-01-16T07:43:29;97989.98;;;2.28;63.52
77381;BME280;66439;50.106;10.996;2024-01-16T07:45:33;97985.12;;;2.22;63.02
77381;BME280;66439;50.106;10.996;2024-01-16T07:47:38;97984.00;;;2.21;63.22
77381;BME280;66439;50.106;10.996;2024-01-16T07:49:42;97982.55;;;2.20;63.11
77381;BME280;66439;50.106;10.996;2024-01-16T07:51:47;97983.63;;;2.17;62.83
77381;BME280;66439;50.106;10.996;2024-01-16T07:54:04;97991.08;;;2.13;62.64
77381;BME280;66439;50.106;10.996;2024-01-16T07:56:11;97992.06;;;2.10;62.70
77381;BME280;66439;50.106;10.996;2024-01-16T07:58:16;97995.79;;;2.09;62.99
77381;BME280;66439;50.106;10.996;2024-01-16T08:00:19;98000.53;;;2.13;63.43
77381;BME280;66439;50.106;10.996;2024-01-16T08:02:30;98001.88;;;2.13;63.15
77381;BME280;66439;50.106;10.996;2024-01-16T08:04:36;98000.59;;;2.12;63.16
77381;BME280;66439;50.106;10.996;2024-01-16T08:06:39;98000.12;;;2.13;63.00
77381;BME280;66439;50.106;10.996;2024-01-16T08:08:46;98002.61;;;2.15;63.34
77381;BME280;66439;50.106;10.996;2024-01-16T08:10:49;98008.04;;;2.14;63.00
77381;BME280;66439;50.106;10.996;2024-01-16T08:12:54;98007.56;;;2.12;63.17
77381;BME280;66439;50.106;10.996;2024-01-16T08:14:59;98011.77;;;2.12;63.08
77381;BME280;66439;50.106;10.996;2024-01-16T08:17:07;98007.02;;;2.14;63.16
77381;BME280;66439;50.106;10.996;2024-01-16T08:19:11;98011.35;;;2.14;63.13
77381;BME280;66439;50.106;10.996;2024-01-16T08:21:18;98008.67;;;2.15;63.10
77381;BME280;66439;50.106;10.996;2024-01-16T08:23:22;98016.38;;;2.17;63.25
77381;BME280;66439;50.106;10.996;2024-01-16T08:25:26;98016.64;;;2.17;63.34
77381;BME280;66439;50.106;10.996;2024-01-16T08:27:30;98020.77;;;2.18;63.25
77381;BME280;66439;50.106;10.996;2024-01-16T08:29:33;98022.38;;;2.22;63.52
77381;BME280;66439;50.106;10.996;2024-01-16T08:31:36;98025.01;;;2.25;63.47
77381;BME280;66439;50.106;10.996;2024-01-16T08:33:41;98028.41;;;2.30;63.42
77381;BME280;66439;50.106;10.996;2024-01-16T08:35:49;98021.21;;;2.35;63.68
77381;BME280;66439;50.106;10.996;2024-01-16T08:37:52;98020.67;;;2.43;63.92
77381;BME280;66439;50.106;10.996;2024-01-16T08:39:55;98020.64;;;2.51;63.89
77381;BME280;66439;50.106;10.996;2024-01-16T08:41:58;98021.02;;;2.57;63.81
77381;BME280;66439;50.106;10.996;2024-01-16T08:44:00;98021.10;;;2.64;63.60
77381;BME280;66439;50.106;10.996;2024-01-16T08:46:04;98025.60;;;2.68;63.43
77381;BME280;66439;50.106;10.996;2024-01-16T08:48:07;98020.13;;;2.72;63.59
77381;BME280;66439;50.106;10.996;2024-01-16T08:50:10;98019.73;;;2.76;63.45
77381;BME280;66439;50.106;10.996;2024-01-16T08:52:15;98017.92;;;2.78;63.44
77381;BME280;66439;50.106;10.996;2024-01-16T08:54:19;98017.89;;;2.82;63.08
77381;BME280;66439;50.106;10.996;2024-01-16T08:56:21;98018.64;;;2.83;62.88
77381;BME280;66439;50.106;10.996;2024-01-16T08:58:26;98021.07;;;2.85;63.02
77381;BME280;66439;50.106;10.996;2024-01-16T09:00:32;98025.38;;;2.88;63.00
77381;BME280;66439;50.106;10.996;2024-01-16T09:02:37;98024.70;;;2.88;62.54
77381;BME280;66439;50.106;10.996;2024-01-16T09:04:40;98026.19;;;2.87;62.44
77381;BME280;66439;50.106;10.996;2024-01-16T09:06:44;98023.84;;;2.87;62.71
77381;BME280;66439;50.106;10.996;2024-01-16T09:08:48;98024.85;;;2.91;62.84
77381;BME280;66439;50.106;10.996;2024-01-16T09:10:51;98028.52;;;2.95;63.01
77381;BME280;66439;50.106;10.996;2024-01-16T09:12:55;98026.14;;;2.96;62.79
77381;BME280;66439;50.106;10.996;2024-01-16T09:14:59;98021.89;;;2.97;62.41
77381;BME280;66439;50.106;10.996;2024-01-16T09:17:02;98021.55;;;2.97;62.17
77381;BME280;66439;50.106;10.996;2024-01-16T09:19:06;98024.08;;;2.98;62.38
77381;BME280;66439;50.106;10.996;2024-01-16T09:21:09;98028.52;;;2.99;62.04
77381;BME280;66439;50.106;10.996;2024-01-16T09:23:13;98028.38;;;2.97;62.07
77381;BME280;66439;50.106;10.996;2024-01-16T09:25:19;98035.08;;;2.94;61.88
77381;BME280;66439;50.106;10.996;2024-01-16T09:27:25;98037.66;;;2.93;62.00
77381;BME280;66439;50.106;10.996;2024-01-16T09:29:30;98040.91;;;2.93;61.84
77381;BME280;66439;50.106;10.996;2024-01-16T09:31:34;98041.63;;;2.89;61.56
77381;BME280;66439;50.106;10.996;2024-01-16T09:33:39;98036.83;;;2.87;61.75
77381;BME280;66439;50.106;10.996;2024-01-16T09:35:43;98037.05;;;2.90;62.00
77381;BME280;66439;50.106;10.996;2024-01-16T09:37:47;98038.50;;;2.91;61.83
77381;BME280;66439;50.106;10.996;2024-01-16T09:39:52;98037.64;;;2.91;61.87
77381;BME280;66439;50.106;10.996;2024-01-16T09:41:59;98042.67;;;2.92;61.71
77381;BME280;66439;50.106;10.996;2024-01-16T09:44:09;98045.45;;;2.90;61.59
77381;BME280;66439;50.106;10.996;2024-01-16T09:46:15;98042.23;;;2.89;61.52
77381;BME280;66439;50.106;10.996;2024-01-16T09:48:23;98044.80;;;2.91;61.70
77381;BME280;66439;50.106;10.996;2024-01-16T09:50:30;98041.02;;;2.92;61.77
77381;BME280;66439;50.106;10.996;2024-01-16T09:52:34;98039.83;;;2.92;61.71
77381;BME280;66439;50.106;10.996;2024-01-16T09:54:37;98039.52;;;2.93;61.84
77381;BME280;66439;50.106;10.996;2024-01-16T09:56:43;98037.52;;;2.96;61.67
77381;BME280;66439;50.106;10.996;2024-01-16T09:58:50;98037.56;;;2.97;61.66
77381;BME280;66439;50.106;10.996;2024-01-16T10:00:57;98033.69;;;3.00;61.84
77381;BME280;66439;50.106;10.996;2024-01-16T10:03:00;98034.21;;;3.01;61.67
77381;BME280;66439;50.106;10.996;2024-01-16T10:05:04;98033.06;;;3.04;61.70
77381;BME280;66439;50.106;10.996;2024-01-16T10:07:07;98034.20;;;3.03;61.67
77381;BME280;66439;50.106;10.996;2024-01-16T10:09:12;98035.41;;;3.07;61.86
77381;BME280;66439;50.106;10.996;2024-01-16T10:11:15;98039.69;;;3.09;62.28
77381;BME280;66439;50.106;10.996;2024-01-16T10:13:18;98042.89;;;3.14;62.25
77381;BME280;66439;50.106;10.996;2024-01-16T10:15:22;98039.75;;;3.16;61.96
77381;BME280;66439;50.106;10.996;2024-01-16T10:17:44;98040.58;;;3.18;62.22
77381;BME280;66439;50.106;10.996;2024-01-16T10:19:49;98037.05;;;3.24;61.87
77381;BME280;66439;50.106;10.996;2024-01-16T10:21:52;98033.48;;;3.26;61.94
77381;BME280;66439;50.106;10.996;2024-01-16T10:23:54;98035.48;;;3.29;61.92
77381;BME280;66439;50.106;10.996;2024-01-16T10:26:12;98033.98;;;3.30;61.92
77381;BME280;66439;50.106;10.996;2024-01-16T10:28:19;98037.45;;;3.28;61.41
77381;BME280;66439;50.106;10.996;2024-01-16T10:30:27;98037.93;;;3.27;61.94
77381;BME280;66439;50.106;10.996;2024-01-16T10:32:34;98038.52;;;3.32;61.94
77381;BME280;66439;50.106;10.996;2024-01-16T10:34:39;98041.43;;;3.31;61.63
77381;BME280;66439;50.106;10.996;2024-01-16T10:36:41;98040.76;;;3.28;61.54
77381;BME280;66439;50.106;10.996;2024-01-16T10:38:45;98040.98;;;3.25;61.40
77381;BME280;66439;50.106;10.996;2024-01-16T10:40:48;98035.02;;;3.23;61.42
77381;BME280;66439;50.106;10.996;2024-01-16T10:43:06;98038.98;;;3.20;61.22
77381;BME280;66439;50.106;10.996;2024-01-16T10:45:16;98035.25;;;3.17;61.64
77381;BME280;66439;50.106;10.996;2024-01-16T10:47:21;98032.75;;;3.17;61.81
77381;BME280;66439;50.106;10.996;2024-01-16T10:49:24;98035.33;;;3.18;61.96
77381;BME280;66439;50.106;10.996;2024-01-16T10:51:44;98033.34;;;3.19;61.86
77381;BME280;66439;50.106;10.996;2024-01-16T10:54:10;98033.28;;;3.20;61.82
77381;BME280;66439;50.106;10.996;2024-01-16T10:56:17;98031.63;;;3.22;62.14
77381;BME280;66439;50.106;10.996;2024-01-16T10:58:22;98038.25;;;3.22;61.54